Time;durP1;ratioP1;P1;durP2;ratioP2;P2;SDS_P1;SDS_P2;PMS_P1;PMS_P2;Temp;Humidity;BMP_temperature;BMP_pressure;BME280_temperature;BME280_humidity;BME280_pressure;Samples;Min_cycle;Max_cycle;Signal;HPM_P1;HPM_P2
2022/04/30 00:01:12;;;;;;;9.27;5.27;;;4.00;99.90;;;;;;8218300;28;20199;-67
2022/04/30 00:05:14;;;;;;;10.23;6.03;;;3.90;99.90;;;;;;8220450;28;20224;-67
2022/04/30 00:09:15;;;;;;;7.17;4.93;;;3.90;99.90;;;;;;8233928;28;20193;-67
2022/04/30 00:13:16;;;;;;;7.87;5.17;;;3.90;99.90;;;;;;8214592;28;20193;-67
2022/04/30 00:17:17;;;;;;;7.00;5.10;;;3.80;99.90;;;;;;8228218;28;20209;-67
2022/04/30 00:21:18;;;;;;;8.00;5.23;;;3.80;1.00;;;;;;8219072;28;20198;-67
2022/04/30 00:25:19;;;;;;;9.13;5.90;;;3.70;74.20;;;;;;8213685;28;20259;-67
2022/04/30 00:29:19;;;;;;;9.33;5.17;;;3.70;99.90;;;;;;8231770;28;20214;-67
2022/04/30 00:33:20;;;;;;;11.67;6.07;;;3.70;1.00;;;;;;8231689;28;20205;-66
2022/04/30 00:37:21;;;;;;;8.50;5.13;;;3.70;32.80;;;;;;8240631;28;20188;-67
2022/04/30 00:41:23;;;;;;;12.03;5.90;;;3.70;99.90;;;;;;8231846;28;20221;-67
2022/04/30 00:45:24;;;;;;;13.73;7.50;;;3.70;99.90;;;;;;8218558;28;20246;-67
2022/04/30 00:49:24;;;;;;;16.37;8.60;;;3.80;99.90;;;;;;8216090;28;20417;-67
2022/04/30 00:53:26;;;;;;;12.87;7.33;;;3.80;99.90;;;;;;8235450;28;20402;-67
2022/04/30 00:57:31;;;;;;;15.27;8.37;;;3.80;99.90;;;;;;8223034;28;20255;-67
2022/04/30 01:01:33;;;;;;;11.93;6.80;;;3.80;99.90;;;;;;8219502;28;20196;-67
2022/04/30 01:05:34;;;;;;;9.40;6.93;;;3.80;99.90;;;;;;8231578;28;20223;-67
2022/04/30 01:09:42;;;;;;;12.13;7.13;;;3.80;99.90;;;;;;8214291;28;20503;-67
2022/04/30 01:13:44;;;;;;;12.67;7.30;;;3.70;1.00;;;;;;8214421;28;20244;-67
2022/04/30 01:17:45;;;;;;;11.17;6.43;;;3.70;1.00;;;;;;8229577;28;20181;-67
2022/04/30 01:21:51;;;;;;;10.70;6.63;;;3.60;99.90;;;;;;8213954;28;20211;-67
2022/04/30 01:25:53;;;;;;;10.90;7.07;;;3.60;1.00;;;;;;8229035;28;20216;-67
2022/04/30 01:29:56;;;;;;;11.03;6.13;;;3.60;99.90;;;;;;8218259;28;20197;-67
2022/04/30 01:38:20;;;;;;;11.20;7.67;;;3.60;99.90;;;;;;8217183;28;20199;-68
2022/04/30 01:42:22;;;;;;;13.53;7.53;;;3.60;96.70;;;;;;8218246;28;20189;-68
2022/04/30 01:46:23;;;;;;;10.57;7.10;;;3.50;1.00;;;;;;8225312;28;20287;-67
2022/04/30 01:50:24;;;;;;;10.30;6.80;;;3.50;1.00;;;;;;8226855;28;20210;-67
2022/04/30 01:54:27;;;;;;;13.67;7.97;;;3.40;99.90;;;;;;8238780;28;20257;-68
2022/04/30 01:58:27;;;;;;;14.20;7.87;;;3.40;99.90;;;;;;8220729;28;20201;-67
2022/04/30 02:02:34;;;;;;;11.23;8.03;;;3.40;99.90;;;;;;8238778;28;20275;-67
2022/04/30 02:06:36;;;;;;;10.33;6.63;;;3.30;99.90;;;;;;8234116;28;20216;-68
2022/04/30 02:10:39;;;;;;;9.83;6.30;;;3.30;1.00;;;;;;8226386;28;20203;-68
2022/04/30 02:14:42;;;;;;;11.63;6.60;;;3.20;1.00;;;;;;8220304;28;20284;-67
2022/04/30 02:18:43;;;;;;;8.77;6.23;;;3.10;1.00;;;;;;8221530;28;20193;-67
2022/04/30 02:22:44;;;;;;;11.37;6.50;;;3.10;11.90;;;;;;8238733;28;20259;-67
2022/04/30 02:26:45;;;;;;;12.37;7.60;;;3.10;48.70;;;;;;8236062;28;20224;-67
2022/04/30 02:30:47;;;;;;;10.80;7.07;;;3.10;57.40;;;;;;8235262;28;20212;-68
2022/04/30 02:34:49;;;;;;;12.03;6.77;;;3.00;99.90;;;;;;8235436;28;20192;-68
2022/04/30 02:38:50;;;;;;;11.70;6.43;;;3.00;99.90;;;;;;8233352;28;20208;-70
2022/04/30 02:42:52;;;;;;;14.07;6.97;;;3.00;99.90;;;;;;8219513;28;20196;-67
2022/04/30 02:46:55;;;;;;;9.40;6.23;;;2.90;99.90;;;;;;8238830;28;20380;-68
2022/04/30 02:50:59;;;;;;;9.77;6.27;;;3.00;99.90;;;;;;8221498;28;20189;-67
2022/04/30 02:55:00;;;;;;;10.43;6.60;;;2.90;99.90;;;;;;8218823;28;20238;-67
2022/04/30 03:03:21;;;;;;;11.73;6.27;;;2.90;99.90;;;;;;8222152;28;20252;-67
2022/04/30 03:07:22;;;;;;;8.40;5.70;;;2.90;99.90;;;;;;8219070;28;20224;-74
2022/04/30 03:11:23;;;;;;;9.57;5.87;;;2.90;99.90;;;;;;8236070;28;20189;-67
2022/04/30 03:15:27;;;;;;;9.93;5.47;;;2.90;99.90;;;;;;8216400;28;20236;-67
2022/04/30 03:23:48;;;;;;;11.30;6.03;;;2.90;99.90;;;;;;8221136;28;20219;-67
2022/04/30 03:27:49;;;;;;;10.77;6.13;;;3.00;99.90;;;;;;8217081;28;20188;-68
2022/04/30 03:31:49;;;;;;;9.77;5.97;;;3.00;99.90;;;;;;8234523;28;20251;-68
2022/04/30 03:35:50;;;;;;;8.77;5.97;;;3.00;99.90;;;;;;8221476;28;20219;-68
2022/04/30 03:39:51;;;;;;;13.53;6.53;;;3.10;99.90;;;;;;8216319;28;20219;-68
2022/04/30 03:43:52;;;;;;;12.90;6.37;;;3.10;99.90;;;;;;8222297;28;20198;-68
2022/04/30 03:47:53;;;;;;;10.33;6.03;;;3.10;99.90;;;;;;8219268;28;20248;-67
2022/04/30 03:51:54;;;;;;;12.93;5.77;;;3.10;99.90;;;;;;8216283;28;20195;-67
2022/04/30 03:55:56;;;;;;;12.27;6.57;;;3.10;99.90;;;;;;8231616;28;20280;-68
2022/04/30 03:59:57;;;;;;;29.97;11.63;;;3.00;99.90;;;;;;8219267;28;20196;-68
2022/04/30 04:04:00;;;;;;;13.40;7.53;;;3.10;99.90;;;;;;8225278;28;20540;-68
2022/04/30 04:08:01;;;;;;;16.57;8.93;;;3.20;99.90;;;;;;8222145;28;20192;-68
2022/04/30 04:12:02;;;;;;;12.43;7.27;;;3.20;99.90;;;;;;8220559;28;20239;-68
2022/04/30 04:20:25;;;;;;;10.50;6.27;;;3.20;99.90;;;;;;8220529;28;20212;-68
2022/04/30 04:29:05;;;;;;;10.17;6.17;;;3.30;99.90;;;;;;8210203;28;20205;-68
2022/04/30 04:33:05;;;;;;;12.13;6.80;;;3.40;99.90;;;;;;8215018;28;20292;-69
2022/04/30 04:37:07;;;;;;;26.70;12.77;;;3.50;99.90;;;;;;8233827;28;20193;-68
2022/04/30 04:41:09;;;;;;;23.63;10.40;;;3.60;99.90;;;;;;8221892;28;20300;-68
2022/04/30 04:45:10;;;;;;;16.27;9.00;;;3.80;99.90;;;;;;8217314;28;20296;-68
2022/04/30 04:49:11;;;;;;;14.17;8.07;;;3.90;99.90;;;;;;8214377;28;20190;-68
2022/04/30 04:53:12;;;;;;;12.33;7.27;;;4.10;99.60;;;;;;8233634;28;20185;-68
2022/04/30 04:57:14;;;;;;;9.47;5.80;;;4.20;1.00;;;;;;8221042;28;20266;-68
2022/04/30 05:01:14;;;;;;;9.03;6.30;;;4.40;1.00;;;;;;8232915;28;20245;-68
2022/04/30 05:05:15;;;;;;;14.27;8.57;;;4.50;99.90;;;;;;8230265;28;20370;-67
2022/04/30 05:09:16;;;;;;;10.83;7.33;;;4.70;94.90;;;;;;8216590;28;20321;-72
2022/04/30 05:13:17;;;;;;;12.20;7.57;;;4.90;1.00;;;;;;8215561;28;20184;-68
2022/04/30 05:17:17;;;;;;;14.23;9.10;;;5.10;8.10;;;;;;8236854;28;20214;-70
2022/04/30 05:21:18;;;;;;;15.17;9.03;;;5.30;99.90;;;;;;8221557;28;20195;-69
2022/04/30 05:25:19;;;;;;;23.07;13.60;;;5.50;27.20;;;;;;8222817;28;20219;-69
2022/04/30 05:29:20;;;;;;;20.47;13.63;;;5.80;85.60;;;;;;8236565;28;20224;-69
2022/04/30 05:33:21;;;;;;;19.77;12.20;;;6.00;99.90;;;;;;8225672;28;20199;-69
2022/04/30 05:37:21;;;;;;;18.70;11.73;;;6.20;88.70;;;;;;8226869;28;20192;-69
2022/04/30 05:41:22;;;;;;;24.50;14.90;;;6.50;1.00;;;;;;8236392;28;20241;-68
2022/04/30 05:45:23;;;;;;;21.40;13.00;;;6.80;1.00;;;;;;8220139;28;20219;-68
2022/04/30 05:49:24;;;;;;;17.00;10.93;;;7.00;99.90;;;;;;8221482;28;20188;-69
2022/04/30 05:53:25;;;;;;;17.10;10.87;;;7.20;99.90;;;;;;8220988;28;20189;-74
2022/04/30 05:57:26;;;;;;;16.33;12.00;;;7.50;17.00;;;;;;8222432;28;20216;-68
2022/04/30 06:01:27;;;;;;;19.67;12.93;;;7.80;1.00;;;;;;8221103;28;20196;-68
2022/04/30 06:05:28;;;;;;;26.67;18.67;;;8.10;99.90;;;;;;8235805;28;20216;-69
2022/04/30 06:09:29;;;;;;;21.20;15.30;;;8.30;99.90;;;;;;8217729;28;20212;-69
2022/04/30 06:13:29;;;;;;;22.90;13.97;;;8.60;1.00;;;;;;8216537;28;20185;-70
2022/04/30 06:17:30;;;;;;;22.47;14.20;;;8.90;99.90;;;;;;8216577;28;20276;-69
2022/04/30 06:21:31;;;;;;;26.37;15.30;;;9.10;99.90;;;;;;8220705;28;20265;-70
2022/04/30 06:25:32;;;;;;;28.07;18.27;;;9.50;99.90;;;;;;8219716;28;20204;-66
2022/04/30 06:29:33;;;;;;;45.53;19.63;;;9.90;1.00;;;;;;8233317;28;20203;-66
2022/04/30 06:33:33;;;;;;;19.43;12.00;;;10.40;1.00;;;;;;8217268;28;20263;-69
2022/04/30 06:37:34;;;;;;;22.33;13.50;;;10.90;99.90;;;;;;8219603;28;20188;-70
2022/04/30 06:41:35;;;;;;;24.53;15.00;;;11.30;99.90;;;;;;8230799;28;20221;-68
2022/04/30 06:45:36;;;;;;;20.00;11.93;;;11.60;1.00;;;;;;8231991;28;20243;-68
2022/04/30 06:49:37;;;;;;;19.13;10.60;;;11.90;1.00;;;;;;8218933;28;20184;-68
2022/04/30 06:57:57;;;;;;;17.30;9.37;;;12.50;1.00;;;;;;8226106;28;20287;-70
2022/04/30 07:02:01;;;;;;;19.97;8.73;;;12.60;99.90;;;;;;8213942;28;20191;-65
2022/04/30 07:06:03;;;;;;;13.77;8.97;;;12.80;1.00;;;;;;8232189;28;20246;-71
2022/04/30 07:10:04;;;;;;;43.23;23.67;;;13.20;99.90;;;;;;8218787;28;20268;-66
2022/04/30 07:14:05;;;;;;;25.47;12.87;;;13.60;99.90;;;;;;8231529;28;20192;-67
2022/04/30 07:18:06;;;;;;;28.23;14.03;;;13.80;99.90;;;;;;8223708;28;20184;-67
2022/04/30 07:22:07;;;;;;;19.93;11.17;;;14.00;99.90;;;;;;8217747;28;20192;-67
2022/04/30 07:26:08;;;;;;;15.53;8.67;;;14.20;99.90;;;;;;8214998;28;20220;-66
2022/04/30 07:30:09;;;;;;;16.73;9.67;;;14.40;99.90;;;;;;8213408;28;20207;-65
2022/04/30 07:34:10;;;;;;;16.33;9.27;;;14.60;99.90;;;;;;8221220;28;20185;-64
2022/04/30 07:38:11;;;;;;;18.47;9.60;;;14.70;99.90;;;;;;8232051;28;20191;-65
2022/04/30 07:42:12;;;;;;;16.43;9.03;;;14.80;99.90;;;;;;8219665;28;20263;-64
2022/04/30 07:46:12;;;;;;;17.00;10.60;;;14.90;99.90;;;;;;8229203;28;20211;-65
2022/04/30 07:50:13;;;;;;;16.17;9.53;;;15.20;99.90;;;;;;8218355;28;20180;-70
2022/04/30 07:54:14;;;;;;;14.00;8.27;;;15.40;99.90;;;;;;8219057;28;20185;-65
2022/04/30 07:58:15;;;;;;;14.80;7.50;;;15.70;99.90;;;;;;8215335;28;20188;-64
2022/04/30 08:02:16;;;;;;;10.60;7.13;;;15.90;99.90;;;;;;8215350;28;20191;-64
2022/04/30 08:06:17;;;;;;;11.97;7.60;;;16.10;97.40;;;;;;8219059;28;20216;-63
2022/04/30 08:10:18;;;;;;;13.63;8.07;;;16.40;92.70;;;;;;8218693;28;20294;-66
2022/04/30 08:14:19;;;;;;;12.10;8.73;;;16.70;66.20;;;;;;8214471;28;20196;-64
2022/04/30 08:18:19;;;;;;;31.17;17.80;;;17.00;48.90;;;;;;8228045;28;20199;-64
2022/04/30 08:22:20;;;;;;;13.93;8.10;;;17.30;37.50;;;;;;8215000;28;20188;-65
2022/04/30 08:26:21;;;;;;;12.60;5.80;;;17.50;2.40;;;;;;8220270;28;20218;-65
2022/04/30 08:30:22;;;;;;;9.03;5.30;;;17.80;1.00;;;;;;8216680;28;20475;-64
2022/04/30 08:34:23;;;;;;;8.47;5.70;;;18.10;1.00;;;;;;8223134;28;20193;-62
2022/04/30 08:38:24;;;;;;;9.47;5.90;;;18.50;1.00;;;;;;8235750;28;20211;-63
2022/04/30 08:42:24;;;;;;;8.70;5.83;;;18.90;1.00;;;;;;8215095;28;20216;-63
2022/04/30 08:46:25;;;;;;;10.23;5.70;;;19.30;1.00;;;;;;8224551;28;20274;-61
2022/04/30 08:50:26;;;;;;;9.77;5.77;;;19.70;1.00;;;;;;8232705;28;20190;-65
2022/04/30 08:54:27;;;;;;;9.13;5.33;;;20.00;1.00;;;;;;8224262;28;20367;-64
2022/04/30 08:58:27;;;;;;;10.40;5.33;;;20.40;1.00;;;;;;8244101;28;20282;-63
2022/04/30 09:02:28;;;;;;;9.03;5.20;;;20.60;1.00;;;;;;8226490;28;20207;-64
2022/04/30 09:06:29;;;;;;;9.33;5.43;;;20.80;1.00;;;;;;8229862;28;20215;-66
2022/04/30 09:10:33;;;;;;;9.93;5.00;;;21.00;1.00;;;;;;8230665;28;20196;-64
2022/04/30 09:14:34;;;;;;;8.10;5.17;;;21.30;1.00;;;;;;8227312;28;20216;-65
2022/04/30 09:18:39;;;;;;;9.00;5.17;;;21.50;1.00;;;;;;8239470;28;20184;-64
2022/04/30 09:22:40;;;;;;;10.40;5.10;;;21.50;1.00;;;;;;8226608;28;20197;-66
2022/04/30 09:26:41;;;;;;;10.17;5.67;;;21.60;1.00;;;;;;8243617;28;20204;-65
2022/04/30 09:30:42;;;;;;;11.43;5.00;;;21.50;1.00;;;;;;8239236;28;20256;-63
2022/04/30 09:39:13;;;;;;;8.37;4.70;;;20.70;1.00;;;;;;8224577;28;20224;-63
2022/04/30 09:43:16;;;;;;;8.43;4.07;;;20.70;1.00;;;;;;8240548;28;20248;-64
2022/04/30 09:47:17;;;;;;;5.60;3.40;;;20.60;1.00;;;;;;8242452;28;20283;-64
2022/04/30 09:55:40;;;;;;;8.83;4.30;;;20.40;1.00;;;;;;8230915;28;20404;-62
2022/04/30 09:59:43;;;;;;;7.70;3.90;;;20.20;1.00;;;;;;8241334;28;20188;-62
2022/04/30 10:03:45;;;;;;;8.23;4.17;;;20.10;1.00;;;;;;8241818;28;20200;-64
2022/04/30 10:07:48;;;;;;;6.57;3.93;;;20.00;1.00;;;;;;8222451;28;20290;-61
2022/04/30 10:12:07;;;;;;;8.37;3.60;;;19.70;1.00;;;;;;8236232;28;20193;-66
2022/04/30 10:16:15;;;;;;;8.20;3.13;;;19.60;1.00;;;;;;8222583;28;20189;-62
2022/04/30 10:20:37;;;;;;;5.63;3.23;;;19.80;1.00;;;;;;8220094;28;20196;-60
2022/04/30 10:24:49;;;;;;;8.83;3.77;;;19.90;1.00;;;;;;8218992;28;20222;-62
2022/04/30 10:29:12;;;;;;;8.50;4.13;;;19.80;1.00;;;;;;8235135;28;20204;-62
2022/04/30 10:33:13;;;;;;;7.17;4.27;;;19.90;1.00;;;;;;8237288;28;20192;-63
2022/04/30 10:37:14;;;;;;;5.70;3.73;;;20.10;1.00;;;;;;8234928;28;20192;-60
2022/04/30 10:41:14;;;;;;;7.10;3.63;;;20.30;1.00;;;;;;8218686;28;20267;-63
2022/04/30 10:45:16;;;;;;;7.13;4.10;;;20.60;1.00;;;;;;8220695;28;20219;-63
2022/04/30 10:49:16;;;;;;;7.67;4.40;;;20.60;1.00;;;;;;8220438;28;20191;-67
2022/04/30 10:53:24;;;;;;;7.93;3.90;;;20.40;1.00;;;;;;8231805;28;20181;-67
2022/04/30 10:57:25;;;;;;;6.97;3.70;;;20.20;1.00;;;;;;8233303;28;20212;-66
2022/04/30 11:01:26;;;;;;;6.87;3.47;;;20.10;1.00;;;;;;8217904;28;20195;-68
2022/04/30 11:05:27;;;;;;;7.30;3.23;;;20.20;1.00;;;;;;8217525;28;20212;-68
2022/04/30 11:09:28;;;;;;;6.87;3.37;;;20.50;1.00;;;;;;8232833;28;20189;-67
2022/04/30 11:13:29;;;;;;;7.53;3.30;;;20.80;1.00;;;;;;8217611;28;20323;-69
2022/04/30 11:17:30;;;;;;;5.20;3.17;;;20.90;1.00;;;;;;8217952;28;20188;-67
2022/04/30 11:21:38;;;;;;;5.47;2.67;;;20.80;1.00;;;;;;8212440;28;20204;-67
2022/04/30 11:25:40;;;;;;;4.10;2.50;;;20.50;1.00;;;;;;8236292;28;20208;-65
2022/04/30 11:29:50;;;;;;;6.47;2.60;;;20.50;1.00;;;;;;8230921;28;20197;-68
2022/04/30 11:33:51;;;;;;;4.07;2.60;;;20.60;1.00;;;;;;8215103;28;20272;-66
2022/04/30 11:37:53;;;;;;;7.50;2.87;;;20.60;1.00;;;;;;8216350;28;20204;-68
2022/04/30 11:41:56;;;;;;;6.43;3.00;;;20.80;1.00;;;;;;8220822;28;20212;-69
2022/04/30 11:46:01;;;;;;;5.10;2.67;;;20.80;1.00;;;;;;8222114;28;20219;-69
2022/04/30 11:50:08;;;;;;;5.40;2.70;;;20.60;1.00;;;;;;8235268;28;20188;-66
2022/04/30 11:54:14;;;;;;;4.93;2.27;;;20.50;1.00;;;;;;8230582;28;20185;-68
2022/04/30 11:58:14;;;;;;;3.20;2.13;;;20.70;1.00;;;;;;8234904;28;20237;-66
2022/04/30 12:02:16;;;;;;;5.27;2.87;;;20.60;1.00;;;;;;8231313;28;20185;-67
2022/04/30 12:06:19;;;;;;;5.40;3.10;;;20.60;1.00;;;;;;8214441;28;20304;-69
2022/04/30 12:10:26;;;;;;;7.30;3.03;;;20.30;1.00;;;;;;8215364;28;20405;-68
2022/04/30 12:14:27;;;;;;;4.33;1.97;;;20.10;1.00;;;;;;8227642;28;20277;-68
2022/04/30 12:27:23;;;;;;;2.83;1.93;;;20.20;1.00;;;;;;8218239;28;20530;-68
2022/04/30 12:31:24;;;;;;;4.87;2.10;;;20.50;1.00;;;;;;8215641;28;20195;-69
2022/04/30 12:35:26;;;;;;;2.93;1.87;;;20.70;1.00;;;;;;8234553;28;20197;-69
2022/04/30 12:39:27;;;;;;;7.23;2.80;;;20.70;1.00;;;;;;8219278;28;20208;-67
2022/04/30 12:43:31;;;;;;;4.43;2.43;;;20.70;1.00;;;;;;8231399;28;20196;-69
2022/04/30 12:47:32;;;;;;;5.57;2.37;;;20.50;1.00;;;;;;8210797;28;20212;-67
2022/04/30 12:51:32;;;;;;;5.93;2.40;;;20.30;1.00;;;;;;8232351;28;20226;-68
2022/04/30 12:55:34;;;;;;;6.33;2.57;;;20.30;1.00;;;;;;8213751;28;20295;-67
2022/04/30 12:59:36;;;;;;;4.53;2.60;;;20.50;1.00;;;;;;8217680;28;20185;-67
2022/04/30 13:03:37;;;;;;;4.63;2.73;;;20.30;1.00;;;;;;8209856;28;20185;-68
2022/04/30 13:07:39;;;;;;;12.63;6.37;;;20.20;1.00;;;;;;8212820;28;20283;-67
2022/04/30 13:16:08;;;;;;;4.57;2.80;;;19.80;1.00;;;;;;8210190;28;20330;-68
2022/04/30 13:20:11;;;;;;;11.93;5.87;;;19.60;1.00;;;;;;8232194;28;20193;-67
2022/04/30 13:24:13;;;;;;;7.40;3.50;;;19.50;1.00;;;;;;8218079;28;20192;-69
2022/04/30 13:28:14;;;;;;;6.10;3.20;;;19.40;1.00;;;;;;8221878;28;20433;-67
2022/04/30 13:32:14;;;;;;;4.77;2.97;;;19.20;1.00;;;;;;8210067;28;20308;-65
2022/04/30 13:36:15;;;;;;;9.47;4.30;;;19.10;1.00;;;;;;8214845;28;20185;-65
2022/04/30 13:40:16;;;;;;;6.43;2.97;;;19.00;1.00;;;;;;8230512;28;20330;-67
2022/04/30 13:44:17;;;;;;;6.17;3.00;;;19.00;1.00;;;;;;8235215;28;20196;-67
2022/04/30 13:48:18;;;;;;;3.73;2.90;;;19.20;1.00;;;;;;8220340;28;20189;-66
2022/04/30 13:52:19;;;;;;;6.67;3.00;;;19.60;1.00;;;;;;8218330;28;20237;-69
2022/04/30 13:56:20;;;;;;;8.53;3.37;;;20.00;1.00;;;;;;8212946;28;20298;-66
2022/04/30 14:00:21;;;;;;;6.70;3.17;;;20.30;1.00;;;;;;8236504;28;20211;-66
2022/04/30 14:04:22;;;;;;;4.57;3.00;;;20.20;1.00;;;;;;8217996;28;20208;-66
2022/04/30 14:08:23;;;;;;;3.20;1.97;;;20.30;1.00;;;;;;8222801;28;20227;-66
2022/04/30 14:12:24;;;;;;;6.27;2.87;;;20.30;1.00;;;;;;8221948;28;20283;-65
2022/04/30 14:16:25;;;;;;;7.70;3.67;;;20.30;1.00;;;;;;8229744;28;20258;-66
2022/04/30 14:20:26;;;;;;;5.10;2.93;;;20.50;1.00;;;;;;8218078;28;20211;-68
2022/04/30 14:24:27;;;;;;;3.67;2.40;;;20.80;1.00;;;;;;8217005;28;20280;-66
2022/04/30 14:28:28;;;;;;;5.87;3.10;;;20.50;1.00;;;;;;8232598;28;20212;-68
2022/04/30 14:32:28;;;;;;;4.53;2.23;;;20.30;1.00;;;;;;8222613;28;20201;-67
2022/04/30 14:36:33;;;;;;;4.73;2.23;;;20.20;1.00;;;;;;8234804;28;20197;-67
2022/04/30 14:40:33;;;;;;;5.57;2.97;;;20.10;1.00;;;;;;8214893;28;20207;-67
2022/04/30 14:44:34;;;;;;;5.30;3.00;;;19.80;1.00;;;;;;8217163;28;20216;-66
2022/04/30 14:48:35;;;;;;;5.30;2.70;;;19.60;1.00;;;;;;8215548;28;20177;-65
2022/04/30 14:52:37;;;;;;;3.50;2.20;;;19.40;1.00;;;;;;8232127;28;20192;-67
2022/04/30 14:56:38;;;;;;;3.03;1.97;;;19.20;1.00;;;;;;8232033;28;20195;-66
2022/04/30 15:00:41;;;;;;;3.57;1.83;;;19.20;1.00;;;;;;8219648;28;20192;-66
2022/04/30 15:04:42;;;;;;;4.07;1.97;;;19.20;1.00;;;;;;8217789;28;20211;-67
2022/04/30 15:08:43;;;;;;;4.17;2.30;;;19.20;1.00;;;;;;8221061;28;20184;-67
2022/04/30 15:12:44;;;;;;;3.23;2.30;;;19.20;1.00;;;;;;8231691;28;20192;-66
2022/04/30 15:16:45;;;;;;;5.40;2.80;;;19.20;1.00;;;;;;8233365;28;20188;-66
2022/04/30 15:20:46;;;;;;;4.63;2.20;;;19.00;1.00;;;;;;8220670;28;20184;-66
2022/04/30 15:24:47;;;;;;;4.33;2.47;;;18.80;1.00;;;;;;8217426;28;20243;-67
2022/04/30 15:28:48;;;;;;;6.00;2.93;;;18.60;1.00;;;;;;8219886;28;20203;-67
2022/04/30 15:32:48;;;;;;;7.40;4.37;;;18.50;1.00;;;;;;8215971;28;20185;-67
2022/04/30 15:36:49;;;;;;;7.47;3.60;;;18.30;1.00;;;;;;8221529;28;20267;-67
2022/04/30 15:40:52;;;;;;;6.57;4.03;;;18.10;1.00;;;;;;8217469;28;20332;-66
2022/04/30 15:44:53;;;;;;;12.93;9.57;;;17.90;1.00;;;;;;8218386;28;20330;-67
2022/04/30 15:53:13;;;;;;;5.27;3.20;;;17.80;1.00;;;;;;8219839;28;20267;-66
2022/04/30 15:57:14;;;;;;;9.17;5.27;;;17.70;1.00;;;;;;8215111;28;20196;-67
2022/04/30 16:01:15;;;;;;;10.43;7.67;;;17.80;1.00;;;;;;8230417;28;20193;-67
2022/04/30 16:05:16;;;;;;;10.50;7.00;;;17.80;1.00;;;;;;8217571;28;20204;-67
2022/04/30 16:09:17;;;;;;;14.03;10.63;;;17.60;1.00;;;;;;8230722;28;20192;-67
2022/04/30 16:13:18;;;;;;;6.20;3.60;;;17.50;1.00;;;;;;8229038;28;20363;-67
2022/04/30 16:17:19;;;;;;;5.37;3.17;;;17.30;1.00;;;;;;8211281;28;20188;-66
2022/04/30 16:21:20;;;;;;;6.97;3.90;;;17.10;1.00;;;;;;8215795;28;20266;-66
2022/04/30 16:25:20;;;;;;;4.60;3.70;;;17.00;1.00;;;;;;8229574;28;20216;-67
2022/04/30 16:29:21;;;;;;;5.60;2.97;;;17.00;1.00;;;;;;8217938;28;20212;-67
2022/04/30 16:33:22;;;;;;;5.43;2.53;;;17.00;1.00;;;;;;8228918;28;20216;-67
2022/04/30 16:37:23;;;;;;;6.37;3.27;;;17.10;1.00;;;;;;8222523;28;20255;-67
2022/04/30 16:41:24;;;;;;;6.67;4.50;;;17.30;1.00;;;;;;8231498;28;20216;-67
2022/04/30 16:45:28;;;;;;;5.57;3.90;;;17.50;1.00;;;;;;8232963;28;20216;-67
2022/04/30 16:49:29;;;;;;;9.27;4.63;;;17.70;1.00;;;;;;8236099;28;20193;-67
2022/04/30 16:53:30;;;;;;;5.63;3.60;;;18.00;1.00;;;;;;8221168;28;20196;-68
2022/04/30 16:57:32;;;;;;;4.93;3.40;;;18.30;1.00;;;;;;8221276;28;20199;-67
2022/04/30 17:01:34;;;;;;;5.77;4.10;;;18.40;1.00;;;;;;8214581;28;20253;-67
2022/04/30 17:05:34;;;;;;;6.67;4.47;;;18.50;1.00;;;;;;8218197;28;20316;-67
2022/04/30 17:09:36;;;;;;;8.23;4.23;;;18.50;1.00;;;;;;8215761;28;20305;-67
2022/04/30 17:13:40;;;;;;;6.17;4.00;;;18.40;1.00;;;;;;8221543;28;20184;-66
2022/04/30 17:17:41;;;;;;;6.50;3.77;;;18.30;1.00;;;;;;8234420;28;20184;-67
2022/04/30 17:21:42;;;;;;;8.83;4.60;;;18.10;1.00;;;;;;8225678;28;20211;-67
2022/04/30 17:25:43;;;;;;;7.90;3.87;;;17.90;1.00;;;;;;8221114;28;20209;-67
2022/04/30 17:29:44;;;;;;;5.83;3.63;;;17.60;1.00;;;;;;8238114;28;20278;-67
2022/04/30 17:38:04;;;;;;;5.37;3.77;;;17.30;1.00;;;;;;8224168;28;20203;-67
2022/04/30 17:42:06;;;;;;;5.13;3.13;;;17.10;1.00;;;;;;8220927;28;20197;-67
2022/04/30 17:46:07;;;;;;;11.23;4.50;;;16.80;1.00;;;;;;8232545;28;20220;-67
2022/04/30 17:50:09;;;;;;;5.60;4.30;;;16.30;1.00;;;;;;8235442;28;20248;-67
2022/04/30 17:54:10;;;;;;;7.20;4.53;;;15.90;1.00;;;;;;8221723;28;20189;-67
2022/04/30 17:58:12;;;;;;;6.30;3.63;;;15.50;1.00;;;;;;8237594;28;20243;-67
2022/04/30 18:02:15;;;;;;;6.13;3.93;;;15.00;1.00;;;;;;8219619;28;20197;-67
2022/04/30 18:06:16;;;;;;;6.27;3.70;;;14.60;1.00;;;;;;8241510;28;20216;-67
2022/04/30 18:10:16;;;;;;;3.87;3.10;;;14.10;44.30;;;;;;8224195;28;20196;-67
2022/04/30 18:14:20;;;;;;;4.63;2.97;;;13.70;96.70;;;;;;8226681;28;20184;-67
2022/04/30 18:18:21;;;;;;;4.33;2.53;;;13.20;99.90;;;;;;8214782;28;20192;-67
2022/04/30 18:22:24;;;;;;;3.03;2.33;;;12.70;99.90;;;;;;8222640;28;20199;-67
2022/04/30 18:26:24;;;;;;;3.60;2.07;;;12.20;99.90;;;;;;8225969;28;20218;-67
2022/04/30 18:30:25;;;;;;;2.87;2.00;;;11.80;99.90;;;;;;8221628;28;20209;-66
2022/04/30 18:34:26;;;;;;;3.17;2.30;;;11.40;99.90;;;;;;8219960;28;20222;-66
2022/04/30 18:38:27;;;;;;;4.13;2.17;;;11.00;1.00;;;;;;8236893;28;20206;-66
2022/04/30 18:42:29;;;;;;;4.20;2.40;;;10.70;1.00;;;;;;8222269;28;20185;-67
2022/04/30 18:46:31;;;;;;;3.27;2.27;;;10.40;1.00;;;;;;8230472;28;20231;-67
2022/04/30 18:50:32;;;;;;;3.57;2.37;;;10.20;1.00;;;;;;8223895;28;20311;-68
2022/04/30 19:03:11;;;;;;;3.60;2.70;;;9.70;82.00;;;;;;8218500;28;20203;-67
2022/04/30 19:07:12;;;;;;;3.30;2.63;;;9.40;99.90;;;;;;8213431;28;20299;-67
2022/04/30 19:11:13;;;;;;;3.20;2.47;;;9.20;99.90;;;;;;8220972;28;20185;-68
2022/04/30 19:15:14;;;;;;;4.23;2.47;;;9.10;99.90;;;;;;8238303;28;20180;-68
2022/04/30 19:19:15;;;;;;;3.40;2.33;;;8.90;99.90;;;;;;8221199;28;20197;-68
2022/04/30 19:23:16;;;;;;;3.50;2.70;;;8.70;99.90;;;;;;8234023;28;20210;-68
2022/04/30 19:27:17;;;;;;;5.97;4.10;;;8.50;99.90;;;;;;8232646;28;20212;-69
2022/04/30 19:31:18;;;;;;;6.30;3.67;;;8.40;99.90;;;;;;8224840;28;20193;-68
2022/04/30 19:35:20;;;;;;;8.03;4.30;;;8.20;99.90;;;;;;8240069;28;20211;-68
2022/04/30 19:39:22;;;;;;;6.93;4.40;;;8.10;99.90;;;;;;8236583;28;20219;-69
2022/04/30 19:43:23;;;;;;;9.27;5.40;;;8.00;1.00;;;;;;8233305;28;20299;-69
2022/04/30 19:47:24;;;;;;;7.67;4.87;;;7.80;1.00;;;;;;8220479;28;20216;-68
2022/04/30 19:51:25;;;;;;;6.77;4.47;;;7.60;1.00;;;;;;8219463;28;20185;-68
2022/04/30 19:55:26;;;;;;;8.33;5.10;;;7.40;1.00;;;;;;8232213;28;20203;-68
2022/04/30 19:59:28;;;;;;;6.13;4.07;;;7.30;1.00;;;;;;8213155;28;20236;-68
2022/04/30 20:03:29;;;;;;;18.27;8.93;;;7.20;1.00;;;;;;8230234;28;20192;-69
2022/04/30 20:07:30;;;;;;;22.17;10.33;;;7.10;20.30;;;;;;8217951;28;20216;-68
2022/04/30 20:20:10;;;;;;;15.40;8.23;;;6.80;99.90;;;;;;8210580;28;20208;-68
2022/04/30 20:24:11;;;;;;;12.03;6.07;;;6.60;99.90;;;;;;8230705;28;20193;-68
2022/04/30 20:28:12;;;;;;;8.50;5.13;;;6.50;99.90;;;;;;8226466;28;20239;-68
2022/04/30 20:36:42;;;;;;;8.03;5.03;;;6.40;99.90;;;;;;8216324;28;20194;-68
2022/04/30 20:40:43;;;;;;;9.50;4.87;;;6.30;99.90;;;;;;8216286;28;20412;-68
2022/04/30 20:44:45;;;;;;;6.43;3.80;;;6.20;99.90;;;;;;8224692;28;20191;-68
2022/04/30 20:48:46;;;;;;;7.80;4.57;;;6.00;99.90;;;;;;8213225;28;20195;-66
2022/04/30 20:52:47;;;;;;;10.60;5.10;;;6.00;99.90;;;;;;8217228;28;20187;-67
2022/04/30 20:56:48;;;;;;;9.30;5.17;;;5.90;99.90;;;;;;8229621;28;20202;-67
2022/04/30 21:00:50;;;;;;;8.67;5.57;;;5.80;99.90;;;;;;8213474;28;20195;-67
2022/04/30 21:04:51;;;;;;;7.60;5.40;;;5.80;1.00;;;;;;8227908;28;20211;-67
2022/04/30 21:08:52;;;;;;;9.07;5.57;;;5.70;1.00;;;;;;8218410;28;20178;-67
2022/04/30 21:12:53;;;;;;;8.77;5.37;;;5.70;99.90;;;;;;8212986;28;20200;-67
2022/04/30 21:16:54;;;;;;;10.47;5.87;;;5.60;1.00;;;;;;8230304;28;20976;-66
2022/04/30 21:20:55;;;;;;;9.07;5.40;;;5.60;1.00;;;;;;8212118;28;20515;-67
2022/04/30 21:24:56;;;;;;;9.50;5.47;;;5.50;1.00;;;;;;8229133;28;20225;-67
2022/04/30 21:28:57;;;;;;;8.77;5.67;;;5.40;1.00;;;;;;8215608;28;20277;-67
2022/04/30 21:33:02;;;;;;;10.37;4.87;;;5.40;1.00;;;;;;8212574;28;20189;-66
2022/04/30 21:37:03;;;;;;;9.77;5.50;;;5.30;1.00;;;;;;8214689;28;20192;-67
2022/04/30 21:45:26;;;;;;;8.07;5.20;;;5.20;1.00;;;;;;8214811;28;20334;-67
2022/04/30 21:49:27;;;;;;;7.60;4.87;;;5.20;1.00;;;;;;8226937;28;20200;-67
2022/04/30 21:53:28;;;;;;;8.27;5.30;;;5.10;1.00;;;;;;8211100;28;20189;-68
2022/04/30 22:01:54;;;;;;;7.67;4.97;;;5.10;1.00;;;;;;8224430;28;20199;-68
2022/04/30 22:05:55;;;;;;;6.80;4.70;;;5.00;6.80;;;;;;8222736;28;20221;-67
2022/04/30 22:09:56;;;;;;;35.57;13.10;;;5.00;36.30;;;;;;8221257;28;20193;-67
2022/04/30 22:13:56;;;;;;;52.27;18.70;;;5.10;99.90;;;;;;8233582;28;20219;-67
2022/04/30 22:17:58;;;;;;;35.20;13.73;;;5.10;99.90;;;;;;8214924;28;20227;-67
2022/04/30 22:21:58;;;;;;;22.77;9.83;;;5.10;99.90;;;;;;8219712;28;20216;-67
2022/04/30 22:25:59;;;;;;;15.07;7.10;;;5.10;99.90;;;;;;8215045;28;20407;-67
2022/04/30 22:30:00;;;;;;;9.57;6.43;;;5.00;99.90;;;;;;8219884;28;20209;-67
2022/04/30 22:34:00;;;;;;;9.60;5.43;;;5.00;99.90;;;;;;8212038;28;20184;-67